sensor_id;sensor_type;location;lat;lon;timestamp;pressure;altitude;pressure_sealevel;temperature;humidity
12987;BME280;58897;51.960;5.582;2023-07-31T00:01:42;100774.50;;;15.16;100.00
12987;BME280;58897;51.960;5.582;2023-07-31T00:04:08;100768.84;;;15.18;100.00
12987;BME280;58897;51.960;5.582;2023-07-31T00:06:35;100779.94;;;15.16;100.00
12987;BME280;58897;51.960;5.582;2023-07-31T00:09:04;100768.97;;;15.31;100.00
12987;BME280;58897;51.960;5.582;2023-07-31T00:11:31;100773.38;;;15.32;100.00
12987;BME280;58897;51.960;5.582;2023-07-31T00:13:58;100775.50;;;15.36;100.00
12987;BME280;58897;51.960;5.582;2023-07-31T00:16:24;100773.00;;;15.35;100.00
12987;BME280;58897;51.960;5.582;2023-07-31T00:18:51;100762.44;;;15.47;100.00
12987;BME280;58897;51.960;5.582;2023-07-31T00:21:17;100764.97;;;15.48;100.00
12987;BME280;58897;51.960;5.582;2023-07-31T00:23:44;100761.13;;;15.64;100.00
12987;BME280;58897;51.960;5.582;2023-07-31T00:26:11;100750.66;;;15.67;100.00
12987;BME280;58897;51.960;5.582;2023-07-31T00:28:37;100756.34;;;15.72;100.00
12987;BME280;58897;51.960;5.582;2023-07-31T00:31:04;100756.03;;;15.82;100.00
12987;BME280;58897;51.960;5.582;2023-07-31T00:33:31;100756.91;;;15.89;100.00
12987;BME280;58897;51.960;5.582;2023-07-31T00:35:58;100756.53;;;15.98;100.00
12987;BME280;58897;51.960;5.582;2023-07-31T00:38:24;100747.97;;;16.01;100.00
12987;BME280;58897;51.960;5.582;2023-07-31T00:40:51;100745.72;;;16.12;100.00
12987;BME280;58897;51.960;5.582;2023-07-31T00:43:18;100752.06;;;16.19;100.00
12987;BME280;58897;51.960;5.582;2023-07-31T00:45:45;100753.94;;;16.25;100.00
12987;BME280;58897;51.960;5.582;2023-07-31T00:48:11;100747.66;;;16.24;100.00
12987;BME280;58897;51.960;5.582;2023-07-31T00:50:38;100748.97;;;16.35;100.00
12987;BME280;58897;51.960;5.582;2023-07-31T00:53:05;100753.16;;;16.37;100.00
12987;BME280;58897;51.960;5.582;2023-07-31T00:55:32;100745.00;;;16.37;100.00
12987;BME280;58897;51.960;5.582;2023-07-31T00:57:59;100754.88;;;16.38;100.00
12987;BME280;58897;51.960;5.582;2023-07-31T01:00:25;100755.47;;;16.34;100.00
12987;BME280;58897;51.960;5.582;2023-07-31T01:02:52;100735.16;;;16.36;100.00
12987;BME280;58897;51.960;5.582;2023-07-31T01:05:25;100735.16;;;16.43;100.00
12987;BME280;58897;51.960;5.582;2023-07-31T01:08:33;100741.69;;;16.42;100.00
12987;BME280;58897;51.960;5.582;2023-07-31T01:11:36;100742.47;;;16.36;100.00
12987;BME280;58897;51.960;5.582;2023-07-31T01:14:05;100739.75;;;16.36;100.00
12987;BME280;58897;51.960;5.582;2023-07-31T01:16:32;100736.19;;;16.35;100.00
12987;BME280;58897;51.960;5.582;2023-07-31T01:18:58;100735.34;;;16.35;100.00
12987;BME280;58897;51.960;5.582;2023-07-31T01:27:45;100728.91;;;16.42;100.00
12987;BME280;58897;51.960;5.582;2023-07-31T01:30:22;100729.94;;;16.41;100.00
12987;BME280;58897;51.960;5.582;2023-07-31T01:32:52;100726.13;;;16.36;100.00
12987;BME280;58897;51.960;5.582;2023-07-31T01:35:24;100722.56;;;16.35;100.00
12987;BME280;58897;51.960;5.582;2023-07-31T01:37:52;100729.09;;;16.41;100.00
12987;BME280;58897;51.960;5.582;2023-07-31T01:40:20;100719.44;;;16.38;100.00
12987;BME280;58897;51.960;5.582;2023-07-31T01:42:47;100720.47;;;16.37;100.00
12987;BME280;58897;51.960;5.582;2023-07-31T01:45:13;100717.31;;;16.34;100.00
12987;BME280;58897;51.960;5.582;2023-07-31T01:47:40;100718.97;;;16.35;100.00
12987;BME280;58897;51.960;5.582;2023-07-31T01:50:08;100710.22;;;16.39;100.00
12987;BME280;58897;51.960;5.582;2023-07-31T01:52:34;100721.31;;;16.38;100.00
12987;BME280;58897;51.960;5.582;2023-07-31T01:55:01;100707.91;;;16.36;100.00
12987;BME280;58897;51.960;5.582;2023-07-31T01:57:30;100716.88;;;16.30;100.00
12987;BME280;58897;51.960;5.582;2023-07-31T02:00:00;100710.78;;;16.28;100.00
12987;BME280;58897;51.960;5.582;2023-07-31T02:02:27;100713.72;;;16.27;100.00
12987;BME280;58897;51.960;5.582;2023-07-31T02:04:54;100715.78;;;16.25;100.00
12987;BME280;58897;51.960;5.582;2023-07-31T02:07:20;100713.28;;;16.23;100.00
12987;BME280;58897;51.960;5.582;2023-07-31T02:09:47;100717.50;;;16.32;100.00
12987;BME280;58897;51.960;5.582;2023-07-31T02:12:14;100714.38;;;16.29;100.00
12987;BME280;58897;51.960;5.582;2023-07-31T02:14:40;100713.91;;;16.25;100.00
12987;BME280;58897;51.960;5.582;2023-07-31T02:17:07;100702.63;;;16.28;100.00
12987;BME280;58897;51.960;5.582;2023-07-31T02:19:34;100704.25;;;16.23;100.00
12987;BME280;58897;51.960;5.582;2023-07-31T02:22:00;100716.03;;;16.30;100.00
12987;BME280;58897;51.960;5.582;2023-07-31T02:24:28;100710.97;;;16.20;100.00
12987;BME280;58897;51.960;5.582;2023-07-31T02:26:54;100701.75;;;16.21;100.00
12987;BME280;58897;51.960;5.582;2023-07-31T02:29:21;100703.41;;;16.22;100.00
12987;BME280;58897;51.960;5.582;2023-07-31T02:31:48;100691.88;;;16.20;100.00
12987;BME280;58897;51.960;5.582;2023-07-31T02:34:14;100699.03;;;16.28;100.00
12987;BME280;58897;51.960;5.582;2023-07-31T02:36:41;100690.03;;;16.27;100.00
12987;BME280;58897;51.960;5.582;2023-07-31T02:39:08;100681.22;;;16.25;100.00
12987;BME280;58897;51.960;5.582;2023-07-31T02:41:34;100672.84;;;16.27;100.00
12987;BME280;58897;51.960;5.582;2023-07-31T02:44:01;100672.00;;;16.33;100.00
12987;BME280;58897;51.960;5.582;2023-07-31T02:46:27;100674.06;;;16.24;100.00
12987;BME280;58897;51.960;5.582;2023-07-31T02:48:54;100669.91;;;16.28;100.00
12987;BME280;58897;51.960;5.582;2023-07-31T02:51:20;100668.25;;;16.34;100.00
12987;BME280;58897;51.960;5.582;2023-07-31T02:53:50;100673.66;;;16.27;100.00
12987;BME280;58897;51.960;5.582;2023-07-31T02:56:17;100666.97;;;16.23;100.00
12987;BME280;58897;51.960;5.582;2023-07-31T02:58:44;100659.41;;;16.25;100.00
12987;BME280;58897;51.960;5.582;2023-07-31T03:01:11;100663.78;;;16.20;100.00
12987;BME280;58897;51.960;5.582;2023-07-31T03:03:37;100648.91;;;16.22;100.00
12987;BME280;58897;51.960;5.582;2023-07-31T03:06:04;100656.06;;;16.23;100.00
12987;BME280;58897;51.960;5.582;2023-07-31T03:08:31;100653.72;;;16.20;100.00
12987;BME280;58897;51.960;5.582;2023-07-31T03:10:58;100652.66;;;16.15;100.00
12987;BME280;58897;51.960;5.582;2023-07-31T03:13:25;100657.69;;;16.11;100.00
12987;BME280;58897;51.960;5.582;2023-07-31T03:15:51;100656.41;;;16.07;100.00
12987;BME280;58897;51.960;5.582;2023-07-31T03:18:18;100656.84;;;16.11;100.00
12987;BME280;58897;51.960;5.582;2023-07-31T03:20:45;100653.06;;;16.12;100.00
12987;BME280;58897;51.960;5.582;2023-07-31T03:23:11;100652.88;;;16.13;100.00
12987;BME280;58897;51.960;5.582;2023-07-31T03:25:38;100654.53;;;16.14;100.00
12987;BME280;58897;51.960;5.582;2023-07-31T03:28:04;100645.72;;;16.12;100.00
12987;BME280;58897;51.960;5.582;2023-07-31T03:30:31;100642.16;;;16.12;100.00
12987;BME280;58897;51.960;5.582;2023-07-31T03:32:58;100638.22;;;16.21;100.00
12987;BME280;58897;51.960;5.582;2023-07-31T03:35:24;100632.31;;;16.11;100.00
12987;BME280;58897;51.960;5.582;2023-07-31T03:37:51;100628.13;;;16.15;100.00
12987;BME280;58897;51.960;5.582;2023-07-31T03:40:18;100631.25;;;16.12;100.00
12987;BME280;58897;51.960;5.582;2023-07-31T03:42:45;100633.59;;;16.15;100.00
12987;BME280;58897;51.960;5.582;2023-07-31T03:45:11;100624.38;;;16.16;100.00
12987;BME280;58897;51.960;5.582;2023-07-31T03:47:38;100626.00;;;16.03;100.00
12987;BME280;58897;51.960;5.582;2023-07-31T03:50:05;100640.69;;;16.02;100.00
12987;BME280;58897;51.960;5.582;2023-07-31T03:52:32;100627.50;;;16.13;100.00
12987;BME280;58897;51.960;5.582;2023-07-31T03:54:59;100629.16;;;16.07;100.00
12987;BME280;58897;51.960;5.582;2023-07-31T03:57:25;100622.69;;;16.08;100.00
12987;BME280;58897;51.960;5.582;2023-07-31T03:59:52;100617.00;;;16.03;100.00
12987;BME280;58897;51.960;5.582;2023-07-31T04:02:19;100615.09;;;16.03;100.00
12987;BME280;58897;51.960;5.582;2023-07-31T04:04:46;100606.31;;;16.08;100.00
12987;BME280;58897;51.960;5.582;2023-07-31T04:07:12;100607.59;;;16.12;100.00
12987;BME280;58897;51.960;5.582;2023-07-31T04:09:39;100610.09;;;16.07;100.00
12987;BME280;58897;51.960;5.582;2023-07-31T04:12:06;100601.47;;;16.03;100.00
12987;BME280;58897;51.960;5.582;2023-07-31T04:14:33;100599.41;;;16.05;100.00
12987;BME280;58897;51.960;5.582;2023-07-31T04:16:59;100595.84;;;16.05;100.00
12987;BME280;58897;51.960;5.582;2023-07-31T04:19:26;100595.44;;;16.08;100.00
12987;BME280;58897;51.960;5.582;2023-07-31T04:21:53;100585.97;;;16.04;100.00
12987;BME280;58897;51.960;5.582;2023-07-31T04:24:22;100576.75;;;16.12;100.00
12987;BME280;58897;51.960;5.582;2023-07-31T04:26:51;100577.59;;;16.12;100.00
12987;BME280;58897;51.960;5.582;2023-07-31T04:29:19;100574.66;;;16.00;100.00
12987;BME280;58897;51.960;5.582;2023-07-31T04:31:47;100579.88;;;16.02;100.00
12987;BME280;58897;51.960;5.582;2023-07-31T04:34:14;100571.09;;;16.00;100.00
12987;BME280;58897;51.960;5.582;2023-07-31T04:36:44;100583.47;;;16.09;100.00
12987;BME280;58897;51.960;5.582;2023-07-31T04:39:10;100574.44;;;16.08;100.00
12987;BME280;58897;51.960;5.582;2023-07-31T04:41:37;100572.97;;;16.06;100.00
12987;BME280;58897;51.960;5.582;2023-07-31T04:44:04;100576.13;;;16.10;100.00
12987;BME280;58897;51.960;5.582;2023-07-31T04:46:30;100579.09;;;16.15;100.00
12987;BME280;58897;51.960;5.582;2023-07-31T04:48:57;100560.41;;;16.12;100.00
12987;BME280;58897;51.960;5.582;2023-07-31T04:51:24;100566.72;;;16.12;100.00
12987;BME280;58897;51.960;5.582;2023-07-31T04:53:51;100569.47;;;16.25;100.00
12987;BME280;58897;51.960;5.582;2023-07-31T04:56:18;100567.16;;;16.22;100.00
12987;BME280;58897;51.960;5.582;2023-07-31T04:58:45;100563.78;;;16.14;100.00
12987;BME280;58897;51.960;5.582;2023-07-31T05:01:12;100567.56;;;16.13;100.00
12987;BME280;58897;51.960;5.582;2023-07-31T05:03:39;100550.13;;;16.07;100.00
12987;BME280;58897;51.960;5.582;2023-07-31T05:06:06;100563.97;;;16.12;100.00
12987;BME280;58897;51.960;5.582;2023-07-31T05:08:32;100557.69;;;16.12;100.00
12987;BME280;58897;51.960;5.582;2023-07-31T05:11:00;100561.25;;;16.12;100.00
12987;BME280;58897;51.960;5.582;2023-07-31T05:13:27;100553.72;;;16.08;100.00
12987;BME280;58897;51.960;5.582;2023-07-31T05:15:54;100562.69;;;15.95;100.00
12987;BME280;58897;51.960;5.582;2023-07-31T05:18:21;100559.53;;;15.91;100.00
12987;BME280;58897;51.960;5.582;2023-07-31T05:20:47;100558.91;;;15.89;100.00
12987;BME280;58897;51.960;5.582;2023-07-31T05:23:14;100565.78;;;15.85;100.00
12987;BME280;58897;51.960;5.582;2023-07-31T05:25:41;100567.03;;;15.83;100.00
12987;BME280;58897;51.960;5.582;2023-07-31T05:28:07;100573.72;;;15.80;100.00
12987;BME280;58897;51.960;5.582;2023-07-31T05:30:34;100582.56;;;15.82;100.00
12987;BME280;58897;51.960;5.582;2023-07-31T05:33:01;100579.56;;;15.77;100.00
12987;BME280;58897;51.960;5.582;2023-07-31T05:35:28;100579.38;;;15.79;100.00
12987;BME280;58897;51.960;5.582;2023-07-31T05:37:55;100579.97;;;15.68;100.00
12987;BME280;58897;51.960;5.582;2023-07-31T05:40:22;100581.19;;;15.65;100.00
12987;BME280;58897;51.960;5.582;2023-07-31T05:42:48;100579.50;;;15.58;100.00
12987;BME280;58897;51.960;5.582;2023-07-31T05:45:15;100594.13;;;15.57;100.00
12987;BME280;58897;51.960;5.582;2023-07-31T05:47:42;100592.25;;;15.57;100.00
12987;BME280;58897;51.960;5.582;2023-07-31T05:50:09;100582.19;;;15.51;100.00
12987;BME280;58897;51.960;5.582;2023-07-31T05:52:35;100580.72;;;15.49;100.00
12987;BME280;58897;51.960;5.582;2023-07-31T05:55:02;100587.72;;;15.64;100.00
12987;BME280;58897;51.960;5.582;2023-07-31T05:57:29;100566.50;;;15.60;100.00
12987;BME280;58897;51.960;5.582;2023-07-31T05:59:56;100572.59;;;15.62;100.00
12987;BME280;58897;51.960;5.582;2023-07-31T06:02:23;100564.25;;;15.63;100.00
12987;BME280;58897;51.960;5.582;2023-07-31T06:04:50;100554.34;;;15.56;100.00
12987;BME280;58897;51.960;5.582;2023-07-31T06:07:17;100564.25;;;15.63;100.00
12987;BME280;58897;51.960;5.582;2023-07-31T06:09:46;100555.28;;;15.69;100.00
12987;BME280;58897;51.960;5.582;2023-07-31T06:12:14;100562.19;;;15.72;100.00
12987;BME280;58897;51.960;5.582;2023-07-31T06:14:44;100555.66;;;15.66;100.00
12987;BME280;58897;51.960;5.582;2023-07-31T06:17:11;100553.56;;;15.68;100.00
12987;BME280;58897;51.960;5.582;2023-07-31T06:19:40;100553.81;;;15.73;100.00
12987;BME280;58897;51.960;5.582;2023-07-31T06:22:07;100550.88;;;15.75;100.00
12987;BME280;58897;51.960;5.582;2023-07-31T06:24:34;100553.41;;;15.76;100.00
12987;BME280;58897;51.960;5.582;2023-07-31T06:27:00;100544.81;;;15.79;100.00
12987;BME280;58897;51.960;5.582;2023-07-31T06:29:30;100547.97;;;15.83;100.00
12987;BME280;58897;51.960;5.582;2023-07-31T06:31:57;100546.13;;;15.90;100.00
12987;BME280;58897;51.960;5.582;2023-07-31T06:34:25;100546.53;;;15.93;100.00
12987;BME280;58897;51.960;5.582;2023-07-31T06:36:53;100546.97;;;15.97;100.00
12987;BME280;58897;51.960;5.582;2023-07-31T06:39:19;100540.25;;;15.93;100.00
12987;BME280;58897;51.960;5.582;2023-07-31T06:41:46;100536.28;;;15.95;100.00
12987;BME280;58897;51.960;5.582;2023-07-31T06:44:12;100532.72;;;15.95;100.00
12987;BME280;58897;51.960;5.582;2023-07-31T06:46:42;100526.22;;;15.89;100.00
12987;BME280;58897;51.960;5.582;2023-07-31T06:49:12;100523.09;;;15.92;100.00
12987;BME280;58897;51.960;5.582;2023-07-31T06:51:42;100526.22;;;15.96;100.00
12987;BME280;58897;51.960;5.582;2023-07-31T06:54:10;100519.09;;;15.95;100.00
12987;BME280;58897;51.960;5.582;2023-07-31T06:56:36;100515.31;;;15.96;100.00
12987;BME280;58897;51.960;5.582;2023-07-31T06:59:06;100524.16;;;15.98;100.00
12987;BME280;58897;51.960;5.582;2023-07-31T07:01:33;100514.72;;;16.07;100.00
12987;BME280;58897;51.960;5.582;2023-07-31T07:03:59;100523.13;;;16.12;100.00
12987;BME280;58897;51.960;5.582;2023-07-31T07:06:26;100506.31;;;16.08;100.00
12987;BME280;58897;51.960;5.582;2023-07-31T07:09:01;100522.50;;;16.10;100.00
12987;BME280;58897;51.960;5.582;2023-07-31T07:11:33;100516.63;;;16.13;100.00
12987;BME280;58897;51.960;5.582;2023-07-31T07:14:10;100510.97;;;16.15;100.00
12987;BME280;58897;51.960;5.582;2023-07-31T07:16:44;100499.88;;;16.23;100.00
12987;BME280;58897;51.960;5.582;2023-07-31T07:19:11;100514.75;;;16.20;100.00
12987;BME280;58897;51.960;5.582;2023-07-31T07:21:37;100501.16;;;16.27;100.00
12987;BME280;58897;51.960;5.582;2023-07-31T07:24:04;100509.28;;;16.20;100.00
12987;BME280;58897;51.960;5.582;2023-07-31T07:26:30;100512.66;;;16.16;100.00
12987;BME280;58897;51.960;5.582;2023-07-31T07:28:57;100499.88;;;16.23;100.00
12987;BME280;58897;51.960;5.582;2023-07-31T07:31:27;100497.34;;;16.28;100.00
12987;BME280;58897;51.960;5.582;2023-07-31T07:33:54;100507.19;;;16.22;100.00
12987;BME280;58897;51.960;5.582;2023-07-31T07:36:21;100500.72;;;16.23;100.00
12987;BME280;58897;51.960;5.582;2023-07-31T07:38:48;100501.53;;;16.30;100.00
12987;BME280;58897;51.960;5.582;2023-07-31T07:41:14;100509.31;;;16.27;100.00
12987;BME280;58897;51.960;5.582;2023-07-31T07:43:41;100513.91;;;16.33;100.00
12987;BME280;58897;51.960;5.582;2023-07-31T07:46:08;100501.53;;;16.30;100.00
12987;BME280;58897;51.960;5.582;2023-07-31T07:48:34;100492.31;;;16.38;100.00
12987;BME280;58897;51.960;5.582;2023-07-31T07:51:01;100501.16;;;16.40;100.00
12987;BME280;58897;51.960;5.582;2023-07-31T07:53:28;100495.69;;;16.40;100.00
12987;BME280;58897;51.960;5.582;2023-07-31T07:55:58;100498.00;;;16.36;100.00
12987;BME280;58897;51.960;5.582;2023-07-31T07:58:24;100497.59;;;16.39;100.00
12987;BME280;58897;51.960;5.582;2023-07-31T08:00:54;100500.09;;;16.47;100.00
12987;BME280;58897;51.960;5.582;2023-07-31T08:03:21;100494.22;;;16.44;100.00
12987;BME280;58897;51.960;5.582;2023-07-31T08:05:52;100487.50;;;16.46;100.00
12987;BME280;58897;51.960;5.582;2023-07-31T08:08:21;100489.00;;;16.42;100.00
12987;BME280;58897;51.960;5.582;2023-07-31T08:10:52;100497.56;;;16.46;100.00
12987;BME280;58897;51.960;5.582;2023-07-31T08:13:21;100502.38;;;16.50;100.00
12987;BME280;58897;51.960;5.582;2023-07-31T08:15:48;100492.75;;;16.41;100.00
12987;BME280;58897;51.960;5.582;2023-07-31T08:18:33;100485.81;;;16.45;100.00
12987;BME280;58897;51.960;5.582;2023-07-31T08:21:02;100479.16;;;16.54;100.00
12987;BME280;58897;51.960;5.582;2023-07-31T08:23:35;100488.13;;;16.48;100.00
12987;BME280;58897;51.960;5.582;2023-07-31T08:26:26;100473.69;;;16.54;100.00
12987;BME280;58897;51.960;5.582;2023-07-31T08:29:04;100483.53;;;16.68;100.00
12987;BME280;58897;51.960;5.582;2023-07-31T08:31:34;100478.31;;;16.74;100.00
12987;BME280;58897;51.960;5.582;2023-07-31T08:34:03;100479.16;;;16.67;100.00
12987;BME280;58897;51.960;5.582;2023-07-31T08:36:32;100483.53;;;16.68;100.00
12987;BME280;58897;51.960;5.582;2023-07-31T08:39:08;100478.91;;;16.69;100.00
12987;BME280;58897;51.960;5.582;2023-07-31T08:44:45;100481.66;;;16.69;100.00
12987;BME280;58897;51.960;5.582;2023-07-31T08:47:13;100478.06;;;16.68;100.00
12987;BME280;58897;51.960;5.582;2023-07-31T08:49:41;100477.06;;;16.63;100.00
12987;BME280;58897;51.960;5.582;2023-07-31T08:52:08;100477.88;;;16.57;100.00
12987;BME280;58897;51.960;5.582;2023-07-31T08:54:35;100485.44;;;16.61;100.00
12987;BME280;58897;51.960;5.582;2023-07-31T08:57:01;100483.78;;;16.60;100.00
12987;BME280;58897;51.960;5.582;2023-07-31T08:59:29;100480.00;;;16.68;100.00
12987;BME280;58897;51.960;5.582;2023-07-31T09:02:03;100487.31;;;16.74;100.00
12987;BME280;58897;51.960;5.582;2023-07-31T09:04:32;100480.38;;;16.72;100.00
12987;BME280;58897;51.960;5.582;2023-07-31T09:07:03;100477.66;;;16.78;100.00
12987;BME280;58897;51.960;5.582;2023-07-31T09:09:31;100477.88;;;16.70;100.00
12987;BME280;58897;51.960;5.582;2023-07-31T09:11:58;100487.50;;;16.79;100.00
12987;BME280;58897;51.960;5.582;2023-07-31T09:14:25;100486.66;;;16.85;100.00
12987;BME280;58897;51.960;5.582;2023-07-31T09:16:54;100473.03;;;16.72;100.00
12987;BME280;58897;51.960;5.582;2023-07-31T09:19:29;100470.13;;;16.74;100.00
12987;BME280;58897;51.960;5.582;2023-07-31T09:21:55;100475.16;;;16.70;100.00
12987;BME280;58897;51.960;5.582;2023-07-31T09:24:27;100475.97;;;16.77;100.00
12987;BME280;58897;51.960;5.582;2023-07-31T09:26:54;100474.50;;;16.75;100.00
12987;BME280;58897;51.960;5.582;2023-07-31T09:29:25;100462.34;;;16.77;100.00
12987;BME280;58897;51.960;5.582;2023-07-31T09:31:54;100465.88;;;16.91;100.00
12987;BME280;58897;51.960;5.582;2023-07-31T09:34:29;100451.38;;;17.03;100.00
12987;BME280;58897;51.960;5.582;2023-07-31T09:37:02;100444.22;;;17.09;100.00
12987;BME280;58897;51.960;5.582;2023-07-31T09:39:29;100450.19;;;17.37;100.00
12987;BME280;58897;51.960;5.582;2023-07-31T09:41:56;100429.38;;;17.43;100.00
12987;BME280;58897;51.960;5.582;2023-07-31T09:44:39;100443.69;;;17.38;100.00
12987;BME280;58897;51.960;5.582;2023-07-31T09:47:20;100435.31;;;17.26;100.00
12987;BME280;58897;51.960;5.582;2023-07-31T09:49:48;100422.34;;;17.22;100.00
12987;BME280;58897;51.960;5.582;2023-07-31T09:52:16;100434.28;;;17.21;100.00
12987;BME280;58897;51.960;5.582;2023-07-31T09:54:42;100427.38;;;17.18;100.00
12987;BME280;58897;51.960;5.582;2023-07-31T09:57:10;100433.25;;;17.15;100.00
12987;BME280;58897;51.960;5.582;2023-07-31T09:59:38;100419.84;;;17.20;100.00
12987;BME280;58897;51.960;5.582;2023-07-31T10:02:08;100431.56;;;17.27;100.00
12987;BME280;58897;51.960;5.582;2023-07-31T10:04:42;100435.50;;;17.32;100.00
12987;BME280;58897;51.960;5.582;2023-07-31T10:07:12;100427.91;;;17.40;100.00
12987;BME280;58897;51.960;5.582;2023-07-31T10:09:40;100429.56;;;17.48;100.00
12987;BME280;58897;51.960;5.582;2023-07-31T10:12:09;100424.84;;;17.68;100.00
12987;BME280;58897;51.960;5.582;2023-07-31T10:14:37;100423.13;;;17.73;100.00
12987;BME280;58897;51.960;5.582;2023-07-31T10:17:05;100417.50;;;17.68;100.00
12987;BME280;58897;51.960;5.582;2023-07-31T10:19:34;100409.28;;;17.75;100.00
12987;BME280;58897;51.960;5.582;2023-07-31T10:22:02;100409.03;;;17.76;100.00
12987;BME280;58897;51.960;5.582;2023-07-31T10:24:29;100417.50;;;17.68;100.00
12987;BME280;58897;51.960;5.582;2023-07-31T10:26:58;100411.16;;;17.74;100.00
12987;BME280;58897;51.960;5.582;2023-07-31T10:29:26;100403.41;;;17.71;100.00
12987;BME280;58897;51.960;5.582;2023-07-31T10:31:56;100417.38;;;17.57;100.00
12987;BME280;58897;51.960;5.582;2023-07-31T10:34:24;100418.59;;;17.61;100.00
12987;BME280;58897;51.960;5.582;2023-07-31T10:37:20;100413.13;;;17.67;100.00
12987;BME280;58897;51.960;5.582;2023-07-31T10:39:58;100404.84;;;17.74;100.00
12987;BME280;58897;51.960;5.582;2023-07-31T10:44:59;100406.72;;;17.80;100.00
12987;BME280;58897;51.960;5.582;2023-07-31T10:47:26;100409.44;;;17.80;100.00
12987;BME280;58897;51.960;5.582;2023-07-31T10:49:53;100406.84;;;17.92;100.00
12987;BME280;58897;51.960;5.582;2023-07-31T10:52:36;100401.03;;;17.81;100.00
12987;BME280;58897;51.960;5.582;2023-07-31T10:55:24;100411.09;;;17.87;100.00
12987;BME280;58897;51.960;5.582;2023-07-31T10:57:52;100413.91;;;17.99;100.00
12987;BME280;58897;51.960;5.582;2023-07-31T11:00:24;100404.44;;;18.02;100.00
12987;BME280;58897;51.960;5.582;2023-07-31T11:03:29;100403.25;;;17.91;100.00
12987;BME280;58897;51.960;5.582;2023-07-31T11:06:07;100400.34;;;17.86;100.00
12987;BME280;58897;51.960;5.582;2023-07-31T11:08:35;100407.28;;;17.88;100.00
12987;BME280;58897;51.960;5.582;2023-07-31T11:13:32;100398.13;;;17.76;100.00
12987;BME280;58897;51.960;5.582;2023-07-31T11:15:59;100407.28;;;17.88;100.00
12987;BME280;58897;51.960;5.582;2023-07-31T11:18:27;100410.28;;;17.80;100.00
12987;BME280;58897;51.960;5.582;2023-07-31T11:20:53;100410.91;;;17.82;100.00
12987;BME280;58897;51.960;5.582;2023-07-31T11:23:21;100416.88;;;17.98;100.00
12987;BME280;58897;51.960;5.582;2023-07-31T11:25:49;100408.53;;;17.93;100.00
12987;BME280;58897;51.960;5.582;2023-07-31T11:28:18;100405.97;;;17.98;100.00
12987;BME280;58897;51.960;5.582;2023-07-31T11:30:45;100405.69;;;18.06;100.00
12987;BME280;58897;51.960;5.582;2023-07-31T11:33:13;100404.97;;;18.17;100.00
12987;BME280;58897;51.960;5.582;2023-07-31T11:35:48;100393.91;;;18.05;100.00
12987;BME280;58897;51.960;5.582;2023-07-31T11:38:26;100385.03;;;18.10;100.00
12987;BME280;58897;51.960;5.582;2023-07-31T11:40:55;100390.06;;;18.13;100.00
12987;BME280;58897;51.960;5.582;2023-07-31T11:43:22;100386.00;;;18.22;100.00
12987;BME280;58897;51.960;5.582;2023-07-31T11:45:52;100390.56;;;18.28;100.00
12987;BME280;58897;51.960;5.582;2023-07-31T11:48:30;100387.09;;;18.39;100.00
12987;BME280;58897;51.960;5.582;2023-07-31T11:51:08;100370.75;;;18.32;100.00
12987;BME280;58897;51.960;5.582;2023-07-31T11:53:45;100384.88;;;18.29;100.00
12987;BME280;58897;51.960;5.582;2023-07-31T11:56:16;100373.88;;;18.36;100.00
12987;BME280;58897;51.960;5.582;2023-07-31T11:58:47;100378.28;;;18.37;100.00
12987;BME280;58897;51.960;5.582;2023-07-31T12:01:15;100362.19;;;18.54;100.00
12987;BME280;58897;51.960;5.582;2023-07-31T12:03:45;100362.63;;;18.51;100.00
12987;BME280;58897;51.960;5.582;2023-07-31T12:06:13;100360.59;;;18.39;100.00
12987;BME280;58897;51.960;5.582;2023-07-31T12:08:39;100365.34;;;18.51;100.00
12987;BME280;58897;51.960;5.582;2023-07-31T12:11:08;100359.44;;;18.54;100.00
12987;BME280;58897;51.960;5.582;2023-07-31T12:13:37;100368.94;;;18.44;100.00
12987;BME280;58897;51.960;5.582;2023-07-31T12:16:04;100370.84;;;18.44;100.00
12987;BME280;58897;51.960;5.582;2023-07-31T12:18:35;100370.38;;;18.54;100.00
12987;BME280;58897;51.960;5.582;2023-07-31T12:21:05;100368.25;;;18.31;100.00
12987;BME280;58897;51.960;5.582;2023-07-31T12:23:33;100386.38;;;18.25;100.00
12987;BME280;58897;51.960;5.582;2023-07-31T12:28:26;100371.53;;;18.15;100.00
12987;BME280;58897;51.960;5.582;2023-07-31T12:30:57;100382.03;;;18.18;100.00
12987;BME280;58897;51.960;5.582;2023-07-31T12:33:31;100365.94;;;18.28;100.00
12987;BME280;58897;51.960;5.582;2023-07-31T12:36:01;100361.03;;;18.36;100.00
12987;BME280;58897;51.960;5.582;2023-07-31T12:38:28;100364.38;;;18.38;100.00
12987;BME280;58897;51.960;5.582;2023-07-31T12:40:54;100363.47;;;18.44;100.00
12987;BME280;58897;51.960;5.582;2023-07-31T12:43:21;100367.56;;;18.35;100.00
12987;BME280;58897;51.960;5.582;2023-07-31T12:45:47;100358.13;;;18.31;100.00
12987;BME280;58897;51.960;5.582;2023-07-31T12:48:14;100356.78;;;18.22;100.00
12987;BME280;58897;51.960;5.582;2023-07-31T12:50:41;100360.44;;;18.34;100.00
12987;BME280;58897;51.960;5.582;2023-07-31T12:53:07;100365.13;;;18.27;100.00
12987;BME280;58897;51.960;5.582;2023-07-31T12:55:34;100357.22;;;18.19;100.00
12987;BME280;58897;51.960;5.582;2023-07-31T12:58:00;100360.88;;;18.31;100.00
12987;BME280;58897;51.960;5.582;2023-07-31T13:00:27;100354.97;;;18.34;100.00
12987;BME280;58897;51.960;5.582;2023-07-31T13:02:53;100350.81;;;18.25;100.00
12987;BME280;58897;51.960;5.582;2023-07-31T13:05:21;100342.38;;;18.09;100.00